createdAt,value
2022-09-12T00:01:27.700Z,93.08
2022-09-12T00:03:55.288Z,93.11
2022-09-12T00:06:23.434Z,93.34
2022-09-12T00:08:50.479Z,93.26
2022-09-12T00:11:16.822Z,93.23
2022-09-12T00:13:43.865Z,93.42
2022-09-12T00:16:17.909Z,93.51
2022-09-12T00:18:46.233Z,93.38
2022-09-12T00:21:13.355Z,93.44
2022-09-12T00:23:39.778Z,93.78
2022-09-12T00:26:06.684Z,93.72
2022-09-12T00:28:33.756Z,93.98
2022-09-12T00:31:00.211Z,93.92
2022-09-12T00:33:26.528Z,93.88
2022-09-12T00:35:53.017Z,93.84
2022-09-12T00:38:20.396Z,93.80
2022-09-12T00:40:46.950Z,93.76
2022-09-12T00:43:14.999Z,93.73
2022-09-12T00:45:42.564Z,93.85
2022-09-12T00:48:17.006Z,93.80
2022-09-12T00:50:43.384Z,93.76
2022-09-12T00:53:09.982Z,93.80
2022-09-12T00:55:37.710Z,94.01
2022-09-12T00:58:09.043Z,94.09
2022-09-12T01:00:35.811Z,94.22
2022-09-12T01:03:05.708Z,93.89
2022-09-12T01:05:34.326Z,93.82
2022-09-12T01:08:01.483Z,93.81
2022-09-12T01:10:27.941Z,93.84
2022-09-12T01:12:54.275Z,93.73
2022-09-12T01:15:20.647Z,93.72
2022-09-12T01:17:56.226Z,93.70
2022-09-12T01:20:41.423Z,93.74
2022-09-12T01:23:26.331Z,93.78
2022-09-12T01:26:18.274Z,93.74
2022-09-12T01:29:03.486Z,94.11
2022-09-12T01:31:35.022Z,94.08
2022-09-12T01:34:07.504Z,93.91
2022-09-12T01:36:41.079Z,93.84
2022-09-12T01:39:27.683Z,93.76
2022-09-12T01:42:10.118Z,93.77
2022-09-12T01:44:48.107Z,93.80
2022-09-12T01:47:19.790Z,93.75
2022-09-12T01:49:52.084Z,93.73
2022-09-12T01:52:23.033Z,93.73
2022-09-12T01:54:53.321Z,93.84
2022-09-12T01:57:24.992Z,93.87
2022-09-12T01:59:54.697Z,94.13
2022-09-12T02:02:23.991Z,94.12
2022-09-12T02:04:53.174Z,94.17
2022-09-12T02:07:39.783Z,94.16
2022-09-12T02:10:09.850Z,94.16
2022-09-12T02:12:44.193Z,94.18
2022-09-12T02:15:12.267Z,94.12
2022-09-12T02:17:42.419Z,94.14
2022-09-12T02:20:17.768Z,94.09
2022-09-12T02:22:58.036Z,94.27
2022-09-12T02:25:25.382Z,94.43
2022-09-12T02:28:21.627Z,94.69
2022-09-12T02:30:56.500Z,94.49
2022-09-12T02:33:38.189Z,94.37
2022-09-12T02:36:13.514Z,94.35
2022-09-12T02:38:46.896Z,94.65
2022-09-12T02:41:16.836Z,94.59
2022-09-12T02:43:43.395Z,94.58
2022-09-12T02:46:13.161Z,94.55
2022-09-12T02:48:42.689Z,94.50
2022-09-12T02:51:09.453Z,94.50
2022-09-12T02:53:36.596Z,94.48
2022-09-12T02:56:05.415Z,94.58
2022-09-12T02:58:32.569Z,94.74
2022-09-12T03:01:17.697Z,94.73
2022-09-12T03:03:54.733Z,94.77
2022-09-12T03:06:35.746Z,94.85
2022-09-12T03:09:07.376Z,95.16
2022-09-12T03:11:34.165Z,95.40
2022-09-12T03:14:22.133Z,95.47
2022-09-12T03:17:08.706Z,95.63
2022-09-12T03:19:41.902Z,96.04
2022-09-12T03:22:08.201Z,96.23
2022-09-12T03:24:34.493Z,96.28
2022-09-12T03:27:14.059Z,96.29
2022-09-12T03:29:41.123Z,96.45
2022-09-12T03:32:07.543Z,96.50
2022-09-12T03:34:33.886Z,96.71
2022-09-12T03:37:00.320Z,96.70
2022-09-12T03:39:26.926Z,96.77
2022-09-12T03:41:53.936Z,96.64
2022-09-12T03:44:20.555Z,96.83
2022-09-12T03:46:47.114Z,96.81
2022-09-12T03:49:13.493Z,97.01
2022-09-12T03:51:40.042Z,97.09
2022-09-12T03:54:06.428Z,97.31
2022-09-12T03:56:32.845Z,97.36
2022-09-12T03:58:59.289Z,97.44
2022-09-12T04:01:25.637Z,97.53
2022-09-12T04:03:52.533Z,97.55
2022-09-12T04:06:20.587Z,97.89
2022-09-12T04:08:51.654Z,97.96
2022-09-12T04:11:18.884Z,98.08
2022-09-12T04:13:45.783Z,98.27
2022-09-12T04:16:12.852Z,98.70
2022-09-12T04:18:39.537Z,98.63
2022-09-12T04:21:06.935Z,99.03
2022-09-12T04:23:33.631Z,99.11
2022-09-12T04:26:00.822Z,99.30
2022-09-12T04:28:29.051Z,99.28
2022-09-12T04:30:55.666Z,99.11
2022-09-12T04:33:22.118Z,99.10
2022-09-12T04:35:48.612Z,99.05
2022-09-12T04:38:15.015Z,99.48
2022-09-12T04:40:41.334Z,99.69
2022-09-12T04:43:11.189Z,99.80
2022-09-12T04:45:40.155Z,99.77
2022-09-12T04:48:06.490Z,99.78
2022-09-12T04:50:33.030Z,100.00
2022-09-12T04:52:59.361Z,99.84
2022-09-12T04:55:26.186Z,99.80
2022-09-12T04:57:53.002Z,99.66
2022-09-12T05:00:19.409Z,99.64
2022-09-12T05:02:46.386Z,99.72
2022-09-12T05:05:12.698Z,99.75
2022-09-12T05:07:39.190Z,99.62
2022-09-12T05:10:05.698Z,99.93
2022-09-12T05:12:32.043Z,100.00
2022-09-12T05:14:58.361Z,99.94
2022-09-12T05:17:24.690Z,99.69
2022-09-12T05:19:51.004Z,99.35
2022-09-12T05:22:17.308Z,99.19
2022-09-12T05:24:58.238Z,99.09
2022-09-12T05:27:24.686Z,98.92
2022-09-12T05:29:51.233Z,98.76
2022-09-12T05:32:17.635Z,98.49
2022-09-12T05:34:44.032Z,98.16
2022-09-12T05:37:10.356Z,97.98
2022-09-12T05:39:36.655Z,97.90
2022-09-12T05:42:03.572Z,97.69
2022-09-12T05:44:29.921Z,97.60
2022-09-12T05:46:56.356Z,97.42
2022-09-12T05:49:22.843Z,97.13
2022-09-12T05:51:53.878Z,96.97
2022-09-12T05:54:21.165Z,97.02
2022-09-12T05:56:47.951Z,96.89
2022-09-12T05:59:19.218Z,96.72
2022-09-12T06:01:46.166Z,96.47
2022-09-12T06:04:12.983Z,96.33
2022-09-12T06:06:41.692Z,95.95
2022-09-12T06:09:08.217Z,95.58
2022-09-12T06:11:37.143Z,95.32
2022-09-12T06:14:03.863Z,95.31
2022-09-12T06:16:31.994Z,95.82
2022-09-12T06:18:59.701Z,95.43
2022-09-12T06:21:27.164Z,95.48
2022-09-12T06:23:54.300Z,95.10
2022-09-12T06:26:23.598Z,95.01
2022-09-12T06:28:50.283Z,94.80
2022-09-12T06:31:18.532Z,94.34
2022-09-12T06:33:46.175Z,94.14
2022-09-12T06:36:14.429Z,93.79
2022-09-12T06:38:40.822Z,93.74
2022-09-12T06:41:11.495Z,93.66
2022-09-12T06:43:38.661Z,93.51
2022-09-12T06:46:05.887Z,93.46
2022-09-12T06:48:32.305Z,93.19
2022-09-12T06:51:02.325Z,93.22
2022-09-12T06:53:30.071Z,93.51
2022-09-12T06:56:00.699Z,93.57
2022-09-12T06:58:27.944Z,93.85
2022-09-12T07:01:02.370Z,93.87
2022-09-12T07:03:29.394Z,94.13
2022-09-12T07:05:55.737Z,94.46
2022-09-12T07:08:22.068Z,94.94
2022-09-12T07:10:48.692Z,95.14
2022-09-12T07:13:15.038Z,96.04
2022-09-12T07:15:41.386Z,96.50
2022-09-12T07:18:09.122Z,96.99
2022-09-12T07:20:37.160Z,97.00
2022-09-12T07:23:03.531Z,97.66
2022-09-12T07:25:29.888Z,97.88
2022-09-12T07:27:56.207Z,98.38
2022-09-12T07:30:23.104Z,98.26
2022-09-12T07:32:53.671Z,98.92
2022-09-12T07:35:20.634Z,99.19
2022-09-12T07:37:47.222Z,100.00
2022-09-12T07:40:13.677Z,100.00
2022-09-12T07:42:40.042Z,100.00
2022-09-12T07:45:07.830Z,100.00
2022-09-12T07:47:34.209Z,100.00
2022-09-12T07:50:00.602Z,100.00
2022-09-12T07:52:27.069Z,100.00
2022-09-12T07:54:53.416Z,100.00
2022-09-12T07:57:19.832Z,100.00
2022-09-12T07:59:53.014Z,100.00
2022-09-12T08:02:20.274Z,100.00
2022-09-12T08:04:47.989Z,100.00
2022-09-12T08:07:14.662Z,100.00
2022-09-12T08:09:40.996Z,100.00
2022-09-12T08:12:07.606Z,100.00
2022-09-12T08:14:33.910Z,100.00
2022-09-12T08:17:00.250Z,100.00
2022-09-12T08:19:26.581Z,100.00
2022-09-12T08:21:52.933Z,100.00
2022-09-12T08:24:19.317Z,100.00
2022-09-12T08:26:45.907Z,100.00
2022-09-12T08:29:12.248Z,100.00
2022-09-12T08:31:38.737Z,100.00
2022-09-12T08:34:05.491Z,100.00
2022-09-12T08:36:32.276Z,100.00
2022-09-12T08:39:04.116Z,100.00
2022-09-12T08:41:39.723Z,100.00
2022-09-12T08:44:24.747Z,100.00
2022-09-12T08:46:57.329Z,100.00
2022-09-12T08:49:35.990Z,100.00
2022-09-12T08:52:13.291Z,100.00
2022-09-12T08:54:39.858Z,100.00
2022-09-12T08:57:09.006Z,100.00
2022-09-12T08:59:38.266Z,100.00
2022-09-12T09:02:15.034Z,100.00
2022-09-12T09:04:51.921Z,100.00
2022-09-12T09:07:45.494Z,100.00
2022-09-12T09:10:18.004Z,100.00
2022-09-12T09:12:58.053Z,100.00
2022-09-12T09:15:34.594Z,100.00
2022-09-12T09:18:19.699Z,100.00
2022-09-12T09:20:51.601Z,100.00
2022-09-12T09:23:30.933Z,100.00
2022-09-12T09:26:11.145Z,100.00
2022-09-12T09:28:42.339Z,100.00
2022-09-12T09:31:15.742Z,100.00
2022-09-12T09:33:42.202Z,100.00
2022-09-12T09:36:20.864Z,100.00
2022-09-12T09:38:47.279Z,100.00
2022-09-12T09:41:19.819Z,100.00
2022-09-12T09:43:46.198Z,100.00
2022-09-12T09:46:14.041Z,100.00
2022-09-12T09:48:42.233Z,100.00
2022-09-12T09:51:09.344Z,100.00
2022-09-12T09:53:54.859Z,100.00
2022-09-12T09:56:33.479Z,100.00
2022-09-12T09:59:13.185Z,100.00
2022-09-12T10:01:46.365Z,100.00
2022-09-12T10:04:20.517Z,100.00
2022-09-12T10:06:47.008Z,100.00
2022-09-12T10:09:26.045Z,100.00
2022-09-12T10:11:52.864Z,100.00
2022-09-12T10:14:28.573Z,100.00
2022-09-12T10:16:55.060Z,100.00
2022-09-12T10:19:25.434Z,100.00
2022-09-12T10:21:53.048Z,100.00
2022-09-12T10:24:23.100Z,100.00
2022-09-12T10:26:56.568Z,100.00
2022-09-12T10:29:25.412Z,100.00
2022-09-12T10:31:54.431Z,100.00
2022-09-12T10:34:34.326Z,100.00
2022-09-12T10:37:17.056Z,100.00
2022-09-12T10:39:50.135Z,100.00
2022-09-12T10:42:36.476Z,100.00
2022-09-12T10:45:02.837Z,100.00
2022-09-12T10:47:30.793Z,100.00
2022-09-12T10:50:22.525Z,100.00
2022-09-12T10:52:49.487Z,100.00
2022-09-12T10:55:15.977Z,100.00
2022-09-12T10:57:45.281Z,100.00
2022-09-12T11:00:17.603Z,100.00
2022-09-12T11:02:50.710Z,100.00
2022-09-12T11:05:36.537Z,100.00
2022-09-12T11:08:17.363Z,100.00
2022-09-12T11:10:54.396Z,100.00
2022-09-12T11:13:45.997Z,100.00
2022-09-12T11:16:31.104Z,100.00
2022-09-12T11:19:10.722Z,100.00
2022-09-12T11:21:55.957Z,100.00
2022-09-12T11:24:31.915Z,100.00
2022-09-12T11:27:08.875Z,100.00
2022-09-12T11:29:47.204Z,100.00
2022-09-12T11:32:32.484Z,100.00
2022-09-12T11:35:15.118Z,100.00
2022-09-12T11:37:55.464Z,100.00
2022-09-12T11:40:34.090Z,100.00
2022-09-12T11:43:05.516Z,100.00
2022-09-12T11:45:39.694Z,100.00
2022-09-12T11:48:08.515Z,100.00
2022-09-12T11:50:34.857Z,100.00
2022-09-12T11:53:27.993Z,100.00
2022-09-12T11:55:59.485Z,100.00
2022-09-12T11:58:27.223Z,100.00
2022-09-12T12:00:56.345Z,100.00
2022-09-12T12:03:43.013Z,100.00
2022-09-12T12:06:21.458Z,100.00
2022-09-12T12:08:49.010Z,100.00
2022-09-12T12:11:24.534Z,100.00
2022-09-12T12:14:14.646Z,100.00
2022-09-12T12:16:41.755Z,100.00
2022-09-12T12:19:22.897Z,100.00
2022-09-12T12:21:50.645Z,100.00
2022-09-12T12:24:21.887Z,100.00
2022-09-12T12:26:58.870Z,100.00
2022-09-12T12:29:31.313Z,100.00
2022-09-12T12:32:03.651Z,100.00
2022-09-12T12:34:36.521Z,100.00
2022-09-12T12:37:21.415Z,100.00
2022-09-12T12:39:55.492Z,100.00
2022-09-12T12:42:30.904Z,100.00
2022-09-12T12:44:57.216Z,100.00
2022-09-12T12:47:25.251Z,100.00
2022-09-12T12:49:53.275Z,100.00
2022-09-12T12:52:19.852Z,100.00
2022-09-12T12:54:46.224Z,100.00
2022-09-12T12:57:17.756Z,100.00
2022-09-12T12:59:47.104Z,100.00
2022-09-12T13:02:19.917Z,100.00
2022-09-12T13:04:46.303Z,100.00
2022-09-12T13:07:22.295Z,100.00
2022-09-12T13:09:52.846Z,100.00
2022-09-12T13:12:27.477Z,100.00
2022-09-12T13:14:55.657Z,100.00
2022-09-12T13:17:26.027Z,100.00
2022-09-12T13:20:16.924Z,100.00
2022-09-12T13:22:45.744Z,100.00
2022-09-12T13:25:21.508Z,100.00
2022-09-12T13:27:58.307Z,100.00
2022-09-12T13:30:25.827Z,100.00
2022-09-12T13:32:52.887Z,100.00
2022-09-12T13:35:21.947Z,100.00
2022-09-12T13:38:06.587Z,100.00
2022-09-12T13:40:32.871Z,100.00
2022-09-12T13:43:12.717Z,100.00
2022-09-12T13:45:39.649Z,100.00
2022-09-12T13:48:10.243Z,100.00
2022-09-12T13:50:42.271Z,100.00
2022-09-12T13:53:16.903Z,100.00
2022-09-12T13:55:47.535Z,100.00
2022-09-12T13:58:22.871Z,100.00
2022-09-12T14:01:03.026Z,100.00
2022-09-12T14:03:49.630Z,100.00
2022-09-12T14:06:16.555Z,100.00
2022-09-12T14:08:43.643Z,100.00
2022-09-12T14:11:10.963Z,100.00
2022-09-12T14:13:39.132Z,100.00
2022-09-12T14:16:09.825Z,100.00
2022-09-12T14:18:37.815Z,100.00
2022-09-12T14:21:10.488Z,100.00
2022-09-12T14:23:41.075Z,100.00
2022-09-12T14:26:09.760Z,100.00
2022-09-12T14:28:37.550Z,100.00
2022-09-12T14:31:06.605Z,100.00
2022-09-12T14:33:34.727Z,100.00
2022-09-12T14:36:10.083Z,100.00
2022-09-12T14:38:47.077Z,100.00
2022-09-12T14:41:20.346Z,100.00
2022-09-12T14:43:47.340Z,100.00
2022-09-12T14:46:24.803Z,100.00
2022-09-12T14:48:57.620Z,100.00
2022-09-12T14:51:29.037Z,100.00
2022-09-12T14:53:55.564Z,100.00
2022-09-12T14:56:36.614Z,100.00
2022-09-12T14:59:21.547Z,100.00
2022-09-12T15:01:47.951Z,100.00
2022-09-12T15:04:34.275Z,100.00
2022-09-12T15:07:13.299Z,100.00
2022-09-12T15:09:43.905Z,100.00
2022-09-12T15:12:12.836Z,100.00
2022-09-12T15:14:39.158Z,100.00
2022-09-12T15:17:05.539Z,100.00
2022-09-12T15:19:31.887Z,100.00
2022-09-12T15:21:58.214Z,100.00
2022-09-12T15:24:24.546Z,100.00
2022-09-12T15:26:50.908Z,100.00
2022-09-12T15:29:17.226Z,100.00
2022-09-12T15:31:46.067Z,100.00
2022-09-12T15:34:12.673Z,100.00
2022-09-12T15:36:39.022Z,100.00
2022-09-12T15:39:05.390Z,100.00
2022-09-12T15:41:32.870Z,100.00
2022-09-12T15:43:59.215Z,100.00
2022-09-12T15:46:25.599Z,100.00
2022-09-12T15:48:51.956Z,100.00
2022-09-12T15:51:19.553Z,100.00
2022-09-12T15:53:46.697Z,100.00
2022-09-12T15:56:14.510Z,100.00
2022-09-12T15:58:57.251Z,100.00
2022-09-12T16:01:24.512Z,100.00
2022-09-12T16:03:50.987Z,100.00
2022-09-12T16:06:17.326Z,100.00
2022-09-12T16:08:43.639Z,100.00
2022-09-12T16:11:26.981Z,100.00
2022-09-12T16:13:53.833Z,100.00
2022-09-12T16:16:20.260Z,100.00
2022-09-12T16:18:46.820Z,100.00
2022-09-12T16:21:15.552Z,100.00
2022-09-12T16:23:43.127Z,100.00
2022-09-12T16:26:09.472Z,100.00
2022-09-12T16:28:35.779Z,100.00
2022-09-12T16:31:06.306Z,100.00
2022-09-12T16:33:33.471Z,100.00
2022-09-12T16:36:18.967Z,100.00
2022-09-12T16:38:46.635Z,100.00
2022-09-12T16:41:13.828Z,100.00
2022-09-12T16:43:40.383Z,100.00
2022-09-12T16:46:08.553Z,100.00
2022-09-12T16:48:34.978Z,100.00
2022-09-12T16:51:02.881Z,100.00
2022-09-12T16:53:33.288Z,100.00
2022-09-12T16:56:00.042Z,100.00
2022-09-12T16:58:26.840Z,100.00
2022-09-12T17:00:59.976Z,100.00
2022-09-12T17:03:26.291Z,100.00
2022-09-12T17:06:02.887Z,100.00
2022-09-12T17:08:29.846Z,100.00
2022-09-12T17:11:03.256Z,100.00
2022-09-12T17:13:46.913Z,100.00
2022-09-12T17:16:16.713Z,100.00
2022-09-12T17:18:43.095Z,100.00
2022-09-12T17:21:10.547Z,100.00
2022-09-12T17:23:37.381Z,100.00
2022-09-12T17:26:03.986Z,100.00
2022-09-12T17:28:30.327Z,100.00
2022-09-12T17:31:01.261Z,100.00
2022-09-12T17:33:28.272Z,100.00
2022-09-12T17:35:54.923Z,100.00
2022-09-12T17:38:25.137Z,100.00
2022-09-12T17:40:59.477Z,100.00
2022-09-12T17:43:26.436Z,100.00
2022-09-12T17:45:57.178Z,100.00
2022-09-12T17:48:23.777Z,100.00
2022-09-12T17:50:50.632Z,100.00
2022-09-12T17:53:17.554Z,100.00
2022-09-12T17:55:43.948Z,100.00
2022-09-12T17:58:10.840Z,100.00
2022-09-12T18:00:55.923Z,100.00
2022-09-12T18:03:23.028Z,100.00
2022-09-12T18:05:52.379Z,100.00
2022-09-12T18:08:19.137Z,100.00
2022-09-12T18:10:45.810Z,100.00
2022-09-12T18:13:12.848Z,100.00
2022-09-12T18:15:39.443Z,100.00
2022-09-12T18:18:06.001Z,100.00
2022-09-12T18:20:32.495Z,100.00
2022-09-12T18:22:59.218Z,100.00
2022-09-12T18:25:25.652Z,100.00
2022-09-12T18:27:52.101Z,100.00
2022-09-12T18:30:21.974Z,100.00
2022-09-12T18:32:48.658Z,100.00
2022-09-12T18:35:15.411Z,100.00
2022-09-12T18:37:42.002Z,100.00
2022-09-12T18:40:09.171Z,100.00
2022-09-12T18:42:35.559Z,100.00
2022-09-12T18:45:01.881Z,100.00
2022-09-12T18:47:28.684Z,100.00
2022-09-12T18:49:55.177Z,100.00
2022-09-12T18:52:21.486Z,100.00
2022-09-12T18:54:47.808Z,100.00
2022-09-12T18:57:14.124Z,100.00
2022-09-12T18:59:40.472Z,100.00
2022-09-12T19:02:07.100Z,100.00
2022-09-12T19:04:33.795Z,100.00
2022-09-12T19:07:01.034Z,100.00
2022-09-12T19:09:27.404Z,100.00
2022-09-12T19:11:53.744Z,100.00
2022-09-12T19:14:22.757Z,100.00
2022-09-12T19:16:50.766Z,100.00
2022-09-12T19:19:17.119Z,100.00
2022-09-12T19:21:43.891Z,100.00
2022-09-12T19:24:10.578Z,100.00
2022-09-12T19:26:37.653Z,100.00
2022-09-12T19:29:04.102Z,100.00
2022-09-12T19:31:31.160Z,100.00
2022-09-12T19:34:01.824Z,100.00
2022-09-12T19:36:44.475Z,100.00
2022-09-12T19:39:12.029Z,100.00
2022-09-12T19:41:38.508Z,100.00
2022-09-12T19:44:05.538Z,100.00
2022-09-12T19:46:32.085Z,100.00
2022-09-12T19:48:58.494Z,100.00
2022-09-12T19:51:25.189Z,100.00
2022-09-12T19:53:51.660Z,100.00
2022-09-12T19:56:18.025Z,100.00
2022-09-12T19:58:45.383Z,100.00
2022-09-12T20:01:16.182Z,100.00
2022-09-12T20:03:42.969Z,100.00
2022-09-12T20:54:13.782Z,100.00
2022-09-12T20:56:40.148Z,100.00
2022-09-12T20:59:06.553Z,100.00
2022-09-12T21:01:33.092Z,100.00
2022-09-12T21:04:00.816Z,100.00
2022-09-12T21:06:27.569Z,100.00
2022-09-12T21:08:58.311Z,100.00
2022-09-12T21:11:24.670Z,100.00
2022-09-12T21:13:51.780Z,100.00
2022-09-12T21:16:19.160Z,100.00
2022-09-12T21:18:45.852Z,100.00
2022-09-12T21:21:13.090Z,100.00
2022-09-12T21:23:39.771Z,100.00
2022-09-12T21:26:06.517Z,100.00
2022-09-12T21:28:33.023Z,100.00
2022-09-12T21:31:00.271Z,100.00
2022-09-12T21:33:26.657Z,100.00
2022-09-12T21:35:53.053Z,100.00
2022-09-12T21:38:20.022Z,100.00
2022-09-12T21:40:47.072Z,100.00
2022-09-12T21:43:13.739Z,100.00
2022-09-12T21:45:40.237Z,100.00
2022-09-12T21:48:06.600Z,100.00
2022-09-12T21:50:32.946Z,100.00
2022-09-12T21:52:59.384Z,100.00
2022-09-12T21:55:27.214Z,100.00
2022-09-12T21:57:53.995Z,100.00
2022-09-12T22:00:20.553Z,100.00
2022-09-12T22:02:47.406Z,100.00
2022-09-12T22:05:13.938Z,100.00
2022-09-12T22:07:40.531Z,100.00
2022-09-12T22:10:07.501Z,100.00
2022-09-12T22:12:34.305Z,100.00
2022-09-12T22:15:12.739Z,100.00
2022-09-12T22:17:44.027Z,100.00
2022-09-12T22:20:10.757Z,100.00
2022-09-12T22:22:55.837Z,100.00
2022-09-12T22:25:24.657Z,100.00
2022-09-12T22:27:51.786Z,100.00
2022-09-12T22:30:18.460Z,100.00
2022-09-12T22:32:44.873Z,100.00
2022-09-12T22:35:11.228Z,100.00
2022-09-12T22:37:37.579Z,100.00
2022-09-12T22:40:04.181Z,100.00
2022-09-12T22:42:31.198Z,100.00
2022-09-12T22:44:57.517Z,100.00
2022-09-12T22:47:23.851Z,100.00
2022-09-12T22:49:50.197Z,100.00
2022-09-12T22:52:16.689Z,100.00
2022-09-12T22:54:43.310Z,100.00
2022-09-12T22:57:09.601Z,100.00
2022-09-12T22:59:35.913Z,100.00
2022-09-12T23:02:02.234Z,100.00
2022-09-12T23:04:28.533Z,100.00
2022-09-12T23:06:54.873Z,100.00
2022-09-12T23:09:21.239Z,100.00
2022-09-12T23:11:47.558Z,100.00
2022-09-12T23:14:13.955Z,100.00
2022-09-12T23:16:40.278Z,100.00
2022-09-12T23:19:06.743Z,100.00
2022-09-12T23:21:33.098Z,100.00
2022-09-12T23:23:59.421Z,100.00
2022-09-12T23:26:28.206Z,100.00
2022-09-12T23:28:55.469Z,100.00
2022-09-12T23:31:23.440Z,100.00
2022-09-12T23:33:52.362Z,100.00
2022-09-12T23:36:18.750Z,100.00
2022-09-12T23:38:46.305Z,100.00
2022-09-12T23:41:14.024Z,100.00
2022-09-12T23:43:40.502Z,100.00
2022-09-12T23:46:07.289Z,100.00
2022-09-12T23:48:34.038Z,100.00
2022-09-12T23:51:00.512Z,100.00
2022-09-12T23:53:27.408Z,100.00
2022-09-12T23:55:53.869Z,100.00
2022-09-12T23:58:22.237Z,100.00
